createdAt,value
2022-07-30T00:00:24.763Z,18.4
2022-07-30T00:05:21.197Z,18.4
2022-07-30T00:10:25.726Z,18.5
2022-07-30T00:15:30.233Z,18.3
2022-07-30T00:20:34.791Z,18.4
2022-07-30T00:25:38.333Z,18.5
2022-07-30T00:30:42.918Z,18.5
2022-07-30T00:35:47.405Z,18.2
2022-07-30T00:40:50.970Z,18.1
2022-07-30T00:45:55.554Z,18.3
2022-07-30T00:50:59.999Z,18.3
2022-07-30T00:56:03.546Z,18.2
2022-07-30T01:01:08.172Z,18.1
2022-07-30T01:06:14.221Z,18.1
2022-07-30T01:11:16.181Z,18
2022-07-30T01:16:20.759Z,18
2022-07-30T01:21:24.281Z,18
2022-07-30T01:26:28.803Z,18
2022-07-30T01:31:33.436Z,17.9
2022-07-30T01:36:36.891Z,17.8
2022-07-30T01:41:41.444Z,17.6
2022-07-30T01:46:45.958Z,17.4
2022-07-30T01:51:49.490Z,17.4
2022-07-30T01:56:54.043Z,17.4
2022-07-30T02:01:58.576Z,17.3
2022-07-30T02:07:03.553Z,17.2
2022-07-30T02:12:06.658Z,17.1
2022-07-30T02:17:18.929Z,16.9
2022-07-30T02:22:15.696Z,16.8
2022-07-30T02:27:19.237Z,16.7
2022-07-30T02:32:23.794Z,16.6
2022-07-30T02:37:41.588Z,16.5
2022-07-30T02:42:31.893Z,16.4
2022-07-30T02:47:36.429Z,16.4
2022-07-30T02:52:40.948Z,16.3
2022-07-30T02:57:44.530Z,16.3
2022-07-30T03:02:49.096Z,16.3
2022-07-30T03:07:53.536Z,16.2
2022-07-30T03:12:58.091Z,16.1
2022-07-30T03:18:01.636Z,16
2022-07-30T03:23:06.174Z,15.9
2022-07-30T03:28:10.672Z,15.9
2022-07-30T03:33:14.287Z,15.8
2022-07-30T03:38:18.758Z,15.7
2022-07-30T03:43:33.602Z,15.6
2022-07-30T03:48:26.877Z,15.6
2022-07-30T03:53:31.420Z,15.5
2022-07-30T03:58:36.257Z,15.5
2022-07-30T04:03:39.581Z,15.5
2022-07-30T04:08:44.039Z,15.5
2022-07-30T04:13:48.513Z,15.5
2022-07-30T04:18:53.051Z,15.4
2022-07-30T04:24:03.600Z,15.4
2022-07-30T04:29:01.189Z,15.4
2022-07-30T04:34:05.714Z,15.4
2022-07-30T04:39:09.207Z,15.4
2022-07-30T04:44:13.787Z,15.4
2022-07-30T04:49:18.337Z,15.4
2022-07-30T04:54:21.849Z,15.5
2022-07-30T04:59:26.414Z,15.6
2022-07-30T05:04:30.934Z,15.7
2022-07-30T05:09:34.458Z,15.8
2022-07-30T05:14:38.998Z,15.8
2022-07-30T05:19:43.527Z,15.9
2022-07-30T05:24:48.035Z,15.9
2022-07-30T05:29:51.635Z,15.9
2022-07-30T05:34:55.194Z,15.8
2022-07-30T05:40:03.226Z,15.8
2022-07-30T05:45:04.216Z,16.1
2022-07-30T05:50:07.777Z,16.7
2022-07-30T05:55:12.317Z,17.1
2022-07-30T06:00:16.838Z,17.7
2022-07-30T06:05:21.412Z,17.2
2022-07-30T06:10:24.925Z,16.8
2022-07-30T06:15:29.465Z,17
2022-07-30T06:20:34.013Z,17.3
2022-07-30T06:25:37.548Z,17.1
2022-07-30T06:30:42.135Z,17.2
2022-07-30T06:35:46.629Z,17.9
2022-07-30T06:40:50.149Z,18.5
2022-07-30T06:45:54.785Z,19.7
2022-07-30T06:50:59.231Z,20.2
2022-07-30T06:56:02.796Z,20.1
2022-07-30T07:01:11.282Z,19.3
2022-07-30T07:06:11.861Z,19.7
2022-07-30T07:11:16.407Z,19.2
2022-07-30T07:16:19.977Z,20.5
2022-07-30T07:21:24.475Z,20.7
2022-07-30T07:26:29.024Z,21.5
2022-07-30T07:32:06.178Z,20.7
2022-07-30T07:36:37.129Z,21.5
2022-07-30T07:41:48.803Z,22.5
2022-07-30T07:46:45.270Z,21.4
2022-07-30T07:51:49.705Z,20.8
2022-07-30T07:56:54.227Z,23.3
2022-07-30T08:01:58.058Z,23.6
2022-07-30T08:07:02.863Z,24.3
2022-07-30T08:12:06.850Z,21.7
2022-07-30T08:17:11.548Z,22.5
2022-07-30T08:22:14.950Z,24
2022-07-30T08:27:19.484Z,22.3
2022-07-30T08:32:24.018Z,22.9
2022-07-30T08:37:27.608Z,24.7
2022-07-30T08:42:32.121Z,25.8
2022-07-30T08:47:36.685Z,23.8
2022-07-30T08:52:40.211Z,25.6
2022-07-30T08:57:44.756Z,25.9
2022-07-30T09:02:49.262Z,25.5
2022-07-30T09:07:52.833Z,23.8
2022-07-30T09:12:57.391Z,24.9
2022-07-30T09:18:01.985Z,25.7
2022-07-30T09:23:06.459Z,24
2022-07-30T09:28:15.687Z,25.4
2022-07-30T09:33:14.536Z,27
2022-07-30T09:38:19.107Z,25.9
2022-07-30T09:43:27.533Z,25.9
2022-07-30T09:48:26.342Z,27.1
2022-07-30T09:53:30.722Z,27.3
2022-07-30T09:58:35.254Z,25.9
2022-07-30T10:03:41.985Z,27.9
2022-07-30T10:08:46.277Z,25.4
2022-07-30T10:13:47.884Z,24.8
2022-07-30T10:18:52.440Z,24.3
2022-07-30T10:23:55.985Z,27.9
2022-07-30T10:29:00.533Z,26
2022-07-30T10:34:05.058Z,25.1
2022-07-30T10:39:08.627Z,26.4
2022-07-30T10:44:13.150Z,23.9
2022-07-30T10:49:19.048Z,23.7
2022-07-30T10:54:21.210Z,25
2022-07-30T10:59:28.950Z,26.4
2022-07-30T11:04:30.288Z,27.7
2022-07-30T11:09:34.856Z,27.4
2022-07-30T11:14:38.413Z,26.5
2022-07-30T11:19:56.106Z,28.1
2022-07-30T11:24:47.546Z,28.1
2022-07-30T11:29:51.622Z,28.6
2022-07-30T11:34:55.571Z,27.5
2022-07-30T11:40:00.086Z,25.8
2022-07-30T11:45:04.151Z,24.8
2022-07-30T11:50:08.186Z,26.5
2022-07-30T11:55:12.715Z,28.7
2022-07-30T12:00:16.280Z,26.4
2022-07-30T12:05:20.799Z,28.3
2022-07-30T12:10:27.030Z,29
2022-07-30T12:15:29.883Z,28.9
2022-07-30T12:20:33.414Z,27.6
2022-07-30T12:25:37.993Z,25.5
2022-07-30T12:30:42.544Z,25.7
2022-07-30T12:35:46.272Z,27.1
2022-07-30T12:40:50.602Z,27.3
2022-07-30T12:45:55.146Z,27.3
2022-07-30T12:50:58.676Z,26.8
2022-07-30T12:56:03.242Z,27.9
2022-07-30T13:01:07.834Z,29.4
2022-07-30T13:06:11.365Z,29.3
2022-07-30T13:11:15.869Z,28.9
2022-07-30T13:16:20.412Z,29.3
2022-07-30T13:21:24.940Z,30.2
2022-07-30T13:26:28.481Z,28.9
2022-07-30T13:31:43.145Z,29.4
2022-07-30T13:36:37.567Z,29.9
2022-07-30T13:41:41.124Z,29.8
2022-07-30T13:46:45.669Z,29.8
2022-07-30T13:51:50.241Z,27
2022-07-30T13:56:53.719Z,29.1
2022-07-30T14:01:58.349Z,30.2
2022-07-30T14:07:02.281Z,29.2
2022-07-30T14:12:06.371Z,28.6
2022-07-30T14:17:10.915Z,28.7
2022-07-30T14:22:14.535Z,28.2
2022-07-30T14:27:18.987Z,28.3
2022-07-30T14:32:23.564Z,29.3
2022-07-30T14:37:27.112Z,29.9
2022-07-30T14:42:31.610Z,29.3
2022-07-30T14:47:36.187Z,28.9
2022-07-30T14:52:39.710Z,29.8
2022-07-30T14:57:44.276Z,29.2
2022-07-30T15:02:48.802Z,30.1
2022-07-30T15:07:53.336Z,29.4
2022-07-30T15:12:56.887Z,29.5
2022-07-30T15:18:01.402Z,29.3
2022-07-30T15:23:08.433Z,28.1
2022-07-30T15:28:09.487Z,28.3
2022-07-30T15:33:14.054Z,28.9
2022-07-30T15:38:18.584Z,28.9
2022-07-30T15:43:22.122Z,27.8
2022-07-30T15:48:27.560Z,28
2022-07-30T15:53:31.305Z,28.2
2022-07-30T15:58:34.749Z,28.6
2022-07-30T16:03:39.290Z,29
2022-07-30T16:08:43.836Z,29.8
2022-07-30T16:13:48.353Z,28.4
2022-07-30T16:18:51.931Z,28
2022-07-30T16:23:56.485Z,28.4
2022-07-30T16:29:01.019Z,28.6
2022-07-30T16:34:04.592Z,28.9
2022-07-30T16:39:09.117Z,28.9
2022-07-30T16:44:13.666Z,28
2022-07-30T16:49:17.265Z,27.9
2022-07-30T16:54:21.716Z,27.4
2022-07-30T16:59:26.248Z,27.4
2022-07-30T17:04:29.819Z,26.6
2022-07-30T17:09:36.727Z,26.5
2022-07-30T17:14:38.883Z,25.9
2022-07-30T17:19:43.442Z,25.6
2022-07-30T17:24:46.974Z,25.4
2022-07-30T17:29:51.566Z,25.5
2022-07-30T17:34:56.037Z,26.5
2022-07-30T17:40:26.410Z,26.8
2022-07-30T17:45:04.141Z,26.4
2022-07-30T17:50:08.663Z,26
2022-07-30T17:55:12.248Z,25.7
2022-07-30T18:00:16.725Z,25.3
2022-07-30T18:05:21.284Z,25.1
2022-07-30T18:10:24.871Z,25.2
2022-07-30T18:15:29.375Z,24.9
2022-07-30T18:20:32.896Z,24.9
2022-07-30T18:25:53.348Z,24.7
2022-07-30T18:30:41.980Z,24.7
2022-07-30T18:35:45.536Z,24.7
2022-07-30T18:40:50.064Z,24.4
2022-07-30T18:45:54.661Z,24.3
2022-07-30T18:50:58.177Z,24.2
2022-07-30T18:56:02.764Z,23.8
2022-07-30T19:01:07.321Z,23.9
2022-07-30T19:06:11.793Z,23.8
2022-07-30T19:11:15.304Z,23.7
2022-07-30T19:16:19.852Z,23.6
2022-07-30T19:21:24.409Z,23.6
2022-07-30T19:26:27.966Z,23.5
2022-07-30T19:31:32.489Z,23.5
2022-07-30T19:36:37.019Z,23.4
2022-07-30T19:41:40.979Z,23.4
2022-07-30T19:46:45.094Z,23.2
2022-07-30T19:52:17.516Z,23.2
2022-07-30T19:56:53.188Z,23.1
2022-07-30T20:01:57.721Z,22.9
2022-07-30T20:07:02.275Z,22.8
2022-07-30T20:12:06.790Z,22.6
2022-07-30T20:17:10.317Z,22.5
2022-07-30T20:22:14.861Z,22.4
2022-07-30T20:27:37.173Z,22.4
2022-07-30T20:32:22.946Z,22.5
2022-07-30T20:37:27.765Z,22.3
2022-07-30T20:42:31.993Z,22.3
2022-07-30T20:47:38.389Z,22.3
2022-07-30T20:52:40.127Z,22.5
2022-07-30T20:58:02.798Z,22.4
2022-07-30T21:02:48.176Z,22.4
2022-07-30T21:07:53.137Z,22.4
2022-07-30T21:13:03.500Z,22.2
2022-07-30T21:18:02.097Z,22.2
2022-07-30T21:23:05.337Z,22.1
2022-07-30T21:28:09.856Z,22
2022-07-30T21:33:14.340Z,21.9
2022-07-30T21:38:17.926Z,21.8
2022-07-30T21:43:29.343Z,21.8
2022-07-30T21:48:27.256Z,21.7
2022-07-30T21:53:44.904Z,21.7
2022-07-30T21:58:35.050Z,21.6
2022-07-30T22:04:02.986Z,21.5
2022-07-30T22:08:43.157Z,21.4
2022-07-30T22:13:53.523Z,21.4
2022-07-30T22:18:52.270Z,21.2
2022-07-30T22:29:00.311Z,21
2022-07-30T22:34:03.856Z,20.9
2022-07-30T22:39:08.822Z,20.8
2022-07-30T22:44:13.149Z,20.8
2022-07-30T22:49:25.260Z,20.8
2022-07-30T22:54:20.996Z,20.7
2022-07-30T22:59:57.733Z,20.6
2022-07-30T23:04:30.086Z,20.6
2022-07-30T23:09:36.808Z,20.5
2022-07-30T23:12:33.211Z,21.2
2022-07-30T23:14:38.156Z,20.6
2022-07-30T23:19:42.686Z,20.6
2022-07-30T23:24:46.222Z,20.6
2022-07-30T23:29:50.780Z,20.6
2022-07-30T23:34:55.297Z,20.6
2022-07-30T23:39:58.850Z,20.5
2022-07-30T23:45:03.378Z,20.5
2022-07-30T23:50:07.930Z,20.6
2022-07-30T23:55:11.521Z,20.6
